sensor_id;sensor_type;location;lat;lon;timestamp;pressure;altitude;pressure_sealevel;temperature;humidity
21902;BME280;11115;46.038;14.612;2023-04-23T00:02:38;98096.75;;;8.25;100.00
21902;BME280;11115;46.038;14.612;2023-04-23T00:05:12;98088.38;;;8.16;100.00
21902;BME280;11115;46.038;14.612;2023-04-23T00:07:44;98089.34;;;8.07;100.00
21902;BME280;11115;46.038;14.612;2023-04-23T00:10:29;98089.28;;;8.12;100.00
21902;BME280;11115;46.038;14.612;2023-04-23T00:13:03;98088.41;;;8.30;100.00
21902;BME280;11115;46.038;14.612;2023-04-23T00:15:35;98084.84;;;8.30;100.00
21902;BME280;11115;46.038;14.612;2023-04-23T00:18:06;98081.19;;;8.34;100.00
21902;BME280;11115;46.038;14.612;2023-04-23T00:20:50;98086.63;;;8.67;100.00
21902;BME280;11115;46.038;14.612;2023-04-23T00:23:18;98085.41;;;8.59;100.00
21902;BME280;11115;46.038;14.612;2023-04-23T00:25:55;98086.09;;;8.65;100.00
21902;BME280;11115;46.038;14.612;2023-04-23T00:28:27;98071.81;;;8.76;100.00
21902;BME280;11115;46.038;14.612;2023-04-23T00:30:58;98081.09;;;8.67;100.00
21902;BME280;11115;46.038;14.612;2023-04-23T00:33:39;98072.34;;;8.51;100.00
21902;BME280;11115;46.038;14.612;2023-04-23T00:36:24;98083.22;;;8.42;100.00
21902;BME280;11115;46.038;14.612;2023-04-23T00:38:57;98075.47;;;8.44;100.00
21902;BME280;11115;46.038;14.612;2023-04-23T00:41:28;98081.69;;;8.04;100.00
21902;BME280;11115;46.038;14.612;2023-04-23T00:44:01;98079.84;;;7.67;100.00
21902;BME280;11115;46.038;14.612;2023-04-23T00:46:31;98070.56;;;7.63;100.00
21902;BME280;11115;46.038;14.612;2023-04-23T00:49:12;98087.19;;;7.71;100.00
21902;BME280;11115;46.038;14.612;2023-04-23T00:51:41;98070.91;;;7.75;100.00
21902;BME280;11115;46.038;14.612;2023-04-23T00:54:13;98077.56;;;7.87;100.00
21902;BME280;11115;46.038;14.612;2023-04-23T00:56:56;98069.16;;;7.98;100.00
21902;BME280;11115;46.038;14.612;2023-04-23T00:59:27;98070.53;;;7.81;100.00
21902;BME280;11115;46.038;14.612;2023-04-23T01:02:01;98059.28;;;7.78;100.00
21902;BME280;11115;46.038;14.612;2023-04-23T01:04:46;98082.53;;;8.04;100.00
21902;BME280;11115;46.038;14.612;2023-04-23T01:07:42;98084.81;;;8.16;100.00
21902;BME280;11115;46.038;14.612;2023-04-23T01:10:11;98085.00;;;8.19;100.00
21902;BME280;11115;46.038;14.612;2023-04-23T01:12:42;98085.00;;;8.19;100.00
21902;BME280;11115;46.038;14.612;2023-04-23T01:15:13;98078.03;;;7.95;100.00
21902;BME280;11115;46.038;14.612;2023-04-23T01:17:42;98085.31;;;7.85;100.00
21902;BME280;11115;46.038;14.612;2023-04-23T01:20:16;98071.28;;;7.68;100.00
21902;BME280;11115;46.038;14.612;2023-04-23T01:22:44;98090.88;;;7.99;100.00
21902;BME280;11115;46.038;14.612;2023-04-23T01:25:19;98090.06;;;7.99;100.00
21902;BME280;11115;46.038;14.612;2023-04-23T01:27:48;98085.19;;;7.77;100.00
21902;BME280;11115;46.038;14.612;2023-04-23T01:30:20;98085.16;;;7.44;100.00
21902;BME280;11115;46.038;14.612;2023-04-23T01:32:55;98087.69;;;7.22;100.00
21902;BME280;11115;46.038;14.612;2023-04-23T01:35:28;98090.25;;;6.94;100.00
21902;BME280;11115;46.038;14.612;2023-04-23T01:37:58;98088.59;;;6.93;100.00
21902;BME280;11115;46.038;14.612;2023-04-23T01:40:37;98092.88;;;7.23;100.00
21902;BME280;11115;46.038;14.612;2023-04-23T01:43:19;98097.72;;;7.31;100.00
21902;BME280;11115;46.038;14.612;2023-04-23T01:45:50;98091.16;;;7.46;100.00
21902;BME280;11115;46.038;14.612;2023-04-23T01:48:18;98074.97;;;7.45;100.00
21902;BME280;11115;46.038;14.612;2023-04-23T01:51:02;98096.16;;;7.44;100.00
21902;BME280;11115;46.038;14.612;2023-04-23T01:53:35;98078.34;;;7.74;100.00
21902;BME280;11115;46.038;14.612;2023-04-23T01:56:16;98088.09;;;7.67;100.00
21902;BME280;11115;46.038;14.612;2023-04-23T01:58:46;98083.91;;;7.37;100.00
21902;BME280;11115;46.038;14.612;2023-04-23T02:01:50;98079.84;;;7.48;100.00
21902;BME280;11115;46.038;14.612;2023-04-23T02:04:43;98069.53;;;7.40;100.00
21902;BME280;11115;46.038;14.612;2023-04-23T02:07:27;98084.84;;;7.65;100.00
21902;BME280;11115;46.038;14.612;2023-04-23T02:10:06;98025.81;;;7.38;100.00
21902;BME280;11115;46.038;14.612;2023-04-23T02:12:37;98074.81;;;7.55;100.00
21902;BME280;11115;46.038;14.612;2023-04-23T02:15:14;98071.88;;;7.65;100.00
21902;BME280;11115;46.038;14.612;2023-04-23T02:17:59;98072.28;;;7.58;100.00
21902;BME280;11115;46.038;14.612;2023-04-23T02:20:37;98075.44;;;7.66;100.00
21902;BME280;11115;46.038;14.612;2023-04-23T02:23:08;98074.50;;;7.56;100.00
21902;BME280;11115;46.038;14.612;2023-04-23T02:25:54;98040.53;;;7.28;100.00
21902;BME280;11115;46.038;14.612;2023-04-23T02:28:28;98069.38;;;7.50;100.00
21902;BME280;11115;46.038;14.612;2023-04-23T02:31:01;98050.28;;;7.02;100.00
21902;BME280;11115;46.038;14.612;2023-04-23T02:33:40;98068.84;;;7.10;100.00
21902;BME280;11115;46.038;14.612;2023-04-23T02:36:23;98037.41;;;6.97;100.00
21902;BME280;11115;46.038;14.612;2023-04-23T02:38:55;98071.38;;;7.07;100.00
21902;BME280;11115;46.038;14.612;2023-04-23T02:41:25;98073.19;;;7.16;100.00
21902;BME280;11115;46.038;14.612;2023-04-23T02:44:05;98064.09;;;6.97;100.00
21902;BME280;11115;46.038;14.612;2023-04-23T02:47:00;98075.81;;;6.84;100.00
21902;BME280;11115;46.038;14.612;2023-04-23T02:49:28;98072.59;;;6.29;100.00
21902;BME280;11115;46.038;14.612;2023-04-23T02:52:07;98077.34;;;6.47;100.00
21902;BME280;11115;46.038;14.612;2023-04-23T02:54:37;98061.72;;;6.66;100.00
21902;BME280;11115;46.038;14.612;2023-04-23T02:57:14;98071.56;;;6.91;100.00
21902;BME280;11115;46.038;14.612;2023-04-23T02:59:48;98072.69;;;6.90;100.00
21902;BME280;11115;46.038;14.612;2023-04-23T03:02:34;98075.97;;;6.92;100.00
21902;BME280;11115;46.038;14.612;2023-04-23T03:05:06;98068.56;;;7.12;100.00
21902;BME280;11115;46.038;14.612;2023-04-23T03:07:44;98068.03;;;7.10;100.00
21902;BME280;11115;46.038;14.612;2023-04-23T03:10:13;98053.38;;;6.77;100.00
21902;BME280;11115;46.038;14.612;2023-04-23T03:12:46;98072.56;;;7.00;100.00
21902;BME280;11115;46.038;14.612;2023-04-23T03:15:16;98068.50;;;6.98;100.00
21902;BME280;11115;46.038;14.612;2023-04-23T03:17:44;98061.34;;;6.97;100.00
21902;BME280;11115;46.038;14.612;2023-04-23T03:20:13;98049.56;;;6.91;100.00
21902;BME280;11115;46.038;14.612;2023-04-23T03:23:00;98038.50;;;6.78;100.00
21902;BME280;11115;46.038;14.612;2023-04-23T03:25:29;98045.38;;;6.56;100.00
21902;BME280;11115;46.038;14.612;2023-04-23T03:28:01;98047.94;;;6.48;100.00
21902;BME280;11115;46.038;14.612;2023-04-23T03:30:38;98052.25;;;6.30;100.00
21902;BME280;11115;46.038;14.612;2023-04-23T03:33:07;98051.00;;;6.46;100.00
21902;BME280;11115;46.038;14.612;2023-04-23T03:35:40;98060.16;;;6.60;100.00
21902;BME280;11115;46.038;14.612;2023-04-23T03:38:20;98070.75;;;6.48;100.00
21902;BME280;11115;46.038;14.612;2023-04-23T03:40:55;98069.09;;;6.71;100.00
21902;BME280;11115;46.038;14.612;2023-04-23T03:43:39;98069.31;;;6.75;100.00
21902;BME280;11115;46.038;14.612;2023-04-23T03:46:17;98066.19;;;6.38;100.00
21902;BME280;11115;46.038;14.612;2023-04-23T03:48:46;98067.81;;;6.63;100.00
21902;BME280;11115;46.038;14.612;2023-04-23T03:51:27;98080.16;;;6.42;100.00
21902;BME280;11115;46.038;14.612;2023-04-23T03:54:00;98055.44;;;6.18;100.00
21902;BME280;11115;46.038;14.612;2023-04-23T03:57:04;98062.91;;;6.60;100.00
21902;BME280;11115;46.038;14.612;2023-04-23T04:00:05;98065.66;;;6.60;100.00
21902;BME280;11115;46.038;14.612;2023-04-23T04:02:46;98056.59;;;6.36;100.00
21902;BME280;11115;46.038;14.612;2023-04-23T04:05:15;98049.88;;;6.47;100.00
21902;BME280;11115;46.038;14.612;2023-04-23T04:07:44;98057.22;;;6.76;100.00
21902;BME280;11115;46.038;14.612;2023-04-23T04:10:17;98067.63;;;6.55;100.00
21902;BME280;11115;46.038;14.612;2023-04-23T04:12:47;98074.94;;;6.64;100.00
21902;BME280;11115;46.038;14.612;2023-04-23T04:15:27;98074.66;;;6.66;100.00
21902;BME280;11115;46.038;14.612;2023-04-23T04:17:59;98082.53;;;6.73;100.00
21902;BME280;11115;46.038;14.612;2023-04-23T04:20:31;98070.22;;;6.46;100.00
21902;BME280;11115;46.038;14.612;2023-04-23T04:23:04;98080.56;;;6.30;100.00
21902;BME280;11115;46.038;14.612;2023-04-23T04:25:35;98077.66;;;6.46;100.00
21902;BME280;11115;46.038;14.612;2023-04-23T04:28:14;98076.53;;;6.47;100.00
21902;BME280;11115;46.038;14.612;2023-04-23T04:30:47;98081.41;;;6.02;100.00
21902;BME280;11115;46.038;14.612;2023-04-23T04:33:16;98076.03;;;6.16;100.00
21902;BME280;11115;46.038;14.612;2023-04-23T04:35:46;98085.28;;;6.25;100.00
21902;BME280;11115;46.038;14.612;2023-04-23T04:38:38;98083.22;;;6.41;100.00
21902;BME280;11115;46.038;14.612;2023-04-23T04:41:26;98093.16;;;6.60;100.00
21902;BME280;11115;46.038;14.612;2023-04-23T04:44:03;98088.91;;;6.68;100.00
21902;BME280;11115;46.038;14.612;2023-04-23T04:46:50;98085.09;;;6.88;100.00
21902;BME280;11115;46.038;14.612;2023-04-23T04:49:18;98081.47;;;6.92;100.00
21902;BME280;11115;46.038;14.612;2023-04-23T04:52:03;98094.19;;;7.07;100.00
21902;BME280;11115;46.038;14.612;2023-04-23T04:54:40;98097.78;;;7.08;100.00
21902;BME280;11115;46.038;14.612;2023-04-23T04:57:14;98068.97;;;6.81;100.00
21902;BME280;11115;46.038;14.612;2023-04-23T05:00:01;98096.41;;;6.86;100.00
21902;BME280;11115;46.038;14.612;2023-04-23T05:02:49;98083.59;;;7.19;100.00
21902;BME280;11115;46.038;14.612;2023-04-23T05:05:31;98099.13;;;7.48;100.00
21902;BME280;11115;46.038;14.612;2023-04-23T05:08:05;98106.84;;;7.65;100.00
21902;BME280;11115;46.038;14.612;2023-04-23T05:10:47;98101.50;;;7.73;100.00
21902;BME280;11115;46.038;14.612;2023-04-23T05:13:33;98109.44;;;7.94;100.00
21902;BME280;11115;46.038;14.612;2023-04-23T05:16:06;98105.97;;;8.02;100.00
21902;BME280;11115;46.038;14.612;2023-04-23T05:18:44;98111.22;;;7.84;100.00
21902;BME280;11115;46.038;14.612;2023-04-23T05:21:16;98119.06;;;7.77;100.00
21902;BME280;11115;46.038;14.612;2023-04-23T05:23:45;98118.16;;;7.82;100.00
21902;BME280;11115;46.038;14.612;2023-04-23T05:26:18;98101.19;;;7.94;100.00
21902;BME280;11115;46.038;14.612;2023-04-23T05:28:47;98112.50;;;7.92;100.00
21902;BME280;11115;46.038;14.612;2023-04-23T05:31:25;98111.19;;;8.03;100.00
21902;BME280;11115;46.038;14.612;2023-04-23T05:34:11;98108.34;;;8.08;100.00
21902;BME280;11115;46.038;14.612;2023-04-23T05:36:50;98105.50;;;8.13;100.00
21902;BME280;11115;46.038;14.612;2023-04-23T05:39:24;98094.50;;;8.27;100.00
21902;BME280;11115;46.038;14.612;2023-04-23T05:42:01;98088.28;;;8.68;100.00
21902;BME280;11115;46.038;14.612;2023-04-23T05:44:53;98088.88;;;8.65;100.00
21902;BME280;11115;46.038;14.612;2023-04-23T05:47:29;98094.38;;;8.78;100.00
21902;BME280;11115;46.038;14.612;2023-04-23T05:50:02;98079.91;;;8.73;100.00
21902;BME280;11115;46.038;14.612;2023-04-23T05:52:45;98107.06;;;9.07;100.00
21902;BME280;11115;46.038;14.612;2023-04-23T05:55:16;98090.28;;;9.03;100.00
21902;BME280;11115;46.038;14.612;2023-04-23T05:57:48;98103.44;;;9.20;100.00
21902;BME280;11115;46.038;14.612;2023-04-23T06:00:20;98116.22;;;9.30;100.00
21902;BME280;11115;46.038;14.612;2023-04-23T06:02:55;98106.88;;;9.39;100.00
21902;BME280;11115;46.038;14.612;2023-04-23T06:05:28;98105.13;;;9.43;100.00
21902;BME280;11115;46.038;14.612;2023-04-23T06:08:11;98103.47;;;9.56;100.00
21902;BME280;11115;46.038;14.612;2023-04-23T06:10:44;98107.19;;;9.74;100.00
21902;BME280;11115;46.038;14.612;2023-04-23T06:13:15;98104.50;;;10.05;100.00
21902;BME280;11115;46.038;14.612;2023-04-23T06:15:46;98109.13;;;10.18;100.00
21902;BME280;11115;46.038;14.612;2023-04-23T06:18:19;98116.13;;;10.16;100.00
21902;BME280;11115;46.038;14.612;2023-04-23T06:20:52;98114.63;;;9.87;100.00
21902;BME280;11115;46.038;14.612;2023-04-23T06:23:37;98116.63;;;10.18;100.00
21902;BME280;11115;46.038;14.612;2023-04-23T06:26:11;98114.97;;;10.39;100.00
21902;BME280;11115;46.038;14.612;2023-04-23T06:28:44;98122.31;;;10.75;100.00
21902;BME280;11115;46.038;14.612;2023-04-23T06:31:28;98117.84;;;10.87;100.00
21902;BME280;11115;46.038;14.612;2023-04-23T06:34:00;98105.47;;;10.85;100.00
21902;BME280;11115;46.038;14.612;2023-04-23T06:36:31;98112.31;;;10.87;100.00
21902;BME280;11115;46.038;14.612;2023-04-23T06:39:09;98082.13;;;10.77;100.00
21902;BME280;11115;46.038;14.612;2023-04-23T06:41:38;98101.25;;;10.96;100.00
21902;BME280;11115;46.038;14.612;2023-04-23T06:44:22;98100.94;;;10.98;100.00
21902;BME280;11115;46.038;14.612;2023-04-23T06:47:11;98101.34;;;11.31;100.00
21902;BME280;11115;46.038;14.612;2023-04-23T06:49:42;98099.88;;;11.33;100.00
21902;BME280;11115;46.038;14.612;2023-04-23T06:52:20;98104.75;;;11.36;100.00
21902;BME280;11115;46.038;14.612;2023-04-23T06:54:55;98097.91;;;11.34;100.00
21902;BME280;11115;46.038;14.612;2023-04-23T06:57:32;98092.25;;;11.47;100.00
21902;BME280;11115;46.038;14.612;2023-04-23T07:00:05;98088.84;;;11.68;100.00
21902;BME280;11115;46.038;14.612;2023-04-23T07:02:41;98088.72;;;11.99;100.00
21902;BME280;11115;46.038;14.612;2023-04-23T07:05:10;98075.81;;;12.03;100.00
21902;BME280;11115;46.038;14.612;2023-04-23T07:07:38;98075.91;;;12.32;100.00
21902;BME280;11115;46.038;14.612;2023-04-23T07:10:10;98073.56;;;12.52;100.00
21902;BME280;11115;46.038;14.612;2023-04-23T07:12:42;98063.88;;;12.66;100.00
21902;BME280;11115;46.038;14.612;2023-04-23T07:15:19;98068.50;;;12.92;100.00
21902;BME280;11115;46.038;14.612;2023-04-23T07:17:49;98054.53;;;13.09;100.00
21902;BME280;11115;46.038;14.612;2023-04-23T07:20:23;98064.59;;;13.52;100.00
21902;BME280;11115;46.038;14.612;2023-04-23T07:22:58;98072.38;;;13.79;100.00
21902;BME280;11115;46.038;14.612;2023-04-23T07:25:33;98051.63;;;13.56;100.00
21902;BME280;11115;46.038;14.612;2023-04-23T07:28:18;98056.84;;;13.78;100.00
21902;BME280;11115;46.038;14.612;2023-04-23T07:30:52;98061.47;;;13.74;100.00
21902;BME280;11115;46.038;14.612;2023-04-23T07:33:40;98038.97;;;14.00;100.00
21902;BME280;11115;46.038;14.612;2023-04-23T07:36:11;98053.88;;;14.62;100.00
21902;BME280;11115;46.038;14.612;2023-04-23T07:38:41;98060.72;;;14.52;100.00
21902;BME280;11115;46.038;14.612;2023-04-23T07:41:15;98056.66;;;14.49;100.00
21902;BME280;11115;46.038;14.612;2023-04-23T07:43:52;98056.72;;;14.41;100.00
21902;BME280;11115;46.038;14.612;2023-04-23T07:46:26;98054.88;;;14.45;100.00
21902;BME280;11115;46.038;14.612;2023-04-23T07:48:58;98056.25;;;14.39;100.00
21902;BME280;11115;46.038;14.612;2023-04-23T07:51:29;98049.31;;;14.45;100.00
21902;BME280;11115;46.038;14.612;2023-04-23T07:54:02;98055.50;;;14.63;100.00
21902;BME280;11115;46.038;14.612;2023-04-23T07:56:37;98034.44;;;14.86;100.00
21902;BME280;11115;46.038;14.612;2023-04-23T07:59:08;98036.25;;;14.82;100.00
21902;BME280;11115;46.038;14.612;2023-04-23T08:01:51;98054.72;;;14.86;100.00
21902;BME280;11115;46.038;14.612;2023-04-23T08:04:25;98048.56;;;14.93;100.00
21902;BME280;11115;46.038;14.612;2023-04-23T08:07:01;98043.13;;;15.09;100.00
21902;BME280;11115;46.038;14.612;2023-04-23T08:09:46;98046.94;;;14.80;100.00
21902;BME280;11115;46.038;14.612;2023-04-23T08:12:18;98052.75;;;14.99;100.00
21902;BME280;11115;46.038;14.612;2023-04-23T08:14:50;98042.84;;;15.38;100.00
21902;BME280;11115;46.038;14.612;2023-04-23T08:17:27;98036.53;;;15.54;100.00
21902;BME280;11115;46.038;14.612;2023-04-23T08:20:11;98044.00;;;15.62;100.00
21902;BME280;11115;46.038;14.612;2023-04-23T08:23:00;98044.72;;;15.87;100.00
21902;BME280;11115;46.038;14.612;2023-04-23T08:25:32;98044.81;;;15.90;100.00
21902;BME280;11115;46.038;14.612;2023-04-23T08:28:04;98043.38;;;15.68;100.00
21902;BME280;11115;46.038;14.612;2023-04-23T08:30:36;98037.34;;;15.54;100.00
21902;BME280;11115;46.038;14.612;2023-04-23T08:33:15;98024.44;;;15.74;100.00
21902;BME280;11115;46.038;14.612;2023-04-23T08:35:46;98042.50;;;16.36;100.00
21902;BME280;11115;46.038;14.612;2023-04-23T08:38:31;98025.06;;;16.39;100.00
21902;BME280;11115;46.038;14.612;2023-04-23T08:41:05;98037.31;;;16.50;100.00
21902;BME280;11115;46.038;14.612;2023-04-23T08:44:12;98036.84;;;16.48;100.00
21902;BME280;11115;46.038;14.612;2023-04-23T08:46:55;98038.81;;;16.32;100.00
21902;BME280;11115;46.038;14.612;2023-04-23T08:49:33;98041.06;;;16.26;100.00
21902;BME280;11115;46.038;14.612;2023-04-23T08:52:23;98037.66;;;16.49;100.00
21902;BME280;11115;46.038;14.612;2023-04-23T08:55:07;98036.78;;;16.60;100.00
21902;BME280;11115;46.038;14.612;2023-04-23T08:57:57;98038.22;;;16.54;100.00
21902;BME280;11115;46.038;14.612;2023-04-23T09:00:31;98046.88;;;16.96;100.00
21902;BME280;11115;46.038;14.612;2023-04-23T09:03:44;98031.34;;;17.30;100.00
21902;BME280;11115;46.038;14.612;2023-04-23T09:06:16;98037.50;;;17.20;100.00
21902;BME280;11115;46.038;14.612;2023-04-23T09:09:03;98020.97;;;17.31;100.00
21902;BME280;11115;46.038;14.612;2023-04-23T09:11:42;98010.47;;;17.44;100.00
21902;BME280;11115;46.038;14.612;2023-04-23T09:14:12;98020.84;;;17.43;100.00
21902;BME280;11115;46.038;14.612;2023-04-23T09:16:59;98015.41;;;17.50;100.00
21902;BME280;11115;46.038;14.612;2023-04-23T09:19:40;98014.88;;;17.80;100.00
21902;BME280;11115;46.038;14.612;2023-04-23T09:22:11;98009.78;;;17.85;100.00
21902;BME280;11115;46.038;14.612;2023-04-23T09:24:43;97999.53;;;17.93;100.00
21902;BME280;11115;46.038;14.612;2023-04-23T09:27:13;97999.78;;;17.84;100.00
21902;BME280;11115;46.038;14.612;2023-04-23T09:29:50;97988.34;;;17.93;100.00
21902;BME280;11115;46.038;14.612;2023-04-23T09:32:34;97990.88;;;18.40;100.00
21902;BME280;11115;46.038;14.612;2023-04-23T09:35:13;97983.97;;;18.80;100.00
21902;BME280;11115;46.038;14.612;2023-04-23T09:37:47;97988.38;;;18.58;100.00
21902;BME280;11115;46.038;14.612;2023-04-23T09:40:23;97984.63;;;18.50;100.00
21902;BME280;11115;46.038;14.612;2023-04-23T09:43:03;97985.09;;;18.53;100.00
21902;BME280;11115;46.038;14.612;2023-04-23T09:45:49;97978.84;;;18.40;100.00
21902;BME280;11115;46.038;14.612;2023-04-23T09:48:20;97975.25;;;18.85;100.00
21902;BME280;11115;46.038;14.612;2023-04-23T09:50:54;97975.09;;;18.74;100.00
21902;BME280;11115;46.038;14.612;2023-04-23T09:53:40;97967.78;;;18.70;100.00
21902;BME280;11115;46.038;14.612;2023-04-23T09:56:19;97966.16;;;18.69;100.00
21902;BME280;11115;46.038;14.612;2023-04-23T09:58:54;97969.53;;;18.78;100.00
21902;BME280;11115;46.038;14.612;2023-04-23T10:01:37;97967.91;;;18.77;100.00
21902;BME280;11115;46.038;14.612;2023-04-23T10:04:18;97972.44;;;18.85;100.00
21902;BME280;11115;46.038;14.612;2023-04-23T10:06:58;97962.78;;;19.35;100.00
21902;BME280;11115;46.038;14.612;2023-04-23T10:09:43;97940.66;;;19.57;100.00
21902;BME280;11115;46.038;14.612;2023-04-23T10:12:19;97952.88;;;19.72;100.00
21902;BME280;11115;46.038;14.612;2023-04-23T10:15:11;97952.16;;;19.78;100.00
21902;BME280;11115;46.038;14.612;2023-04-23T10:17:54;97945.44;;;19.86;100.00
21902;BME280;11115;46.038;14.612;2023-04-23T10:20:34;97944.56;;;19.82;100.00
21902;BME280;11115;46.038;14.612;2023-04-23T10:23:18;97936.00;;;20.05;100.00
21902;BME280;11115;46.038;14.612;2023-04-23T10:25:59;97932.53;;;20.19;100.00
21902;BME280;11115;46.038;14.612;2023-04-23T10:28:31;97933.72;;;20.55;100.00
21902;BME280;11115;46.038;14.612;2023-04-23T10:31:06;97930.44;;;20.46;100.00
21902;BME280;11115;46.038;14.612;2023-04-23T10:33:43;97921.53;;;20.88;100.00
21902;BME280;11115;46.038;14.612;2023-04-23T10:36:26;97896.16;;;20.29;100.00
21902;BME280;11115;46.038;14.612;2023-04-23T10:39:03;97915.59;;;20.45;100.00
21902;BME280;11115;46.038;14.612;2023-04-23T10:41:39;97923.00;;;20.68;100.00
21902;BME280;11115;46.038;14.612;2023-04-23T10:44:12;97898.97;;;20.81;100.00
21902;BME280;11115;46.038;14.612;2023-04-23T10:47:11;97924.50;;;20.58;100.00
21902;BME280;11115;46.038;14.612;2023-04-23T10:49:44;97918.53;;;20.22;100.00
21902;BME280;11115;46.038;14.612;2023-04-23T10:52:20;97914.03;;;20.51;100.00
21902;BME280;11115;46.038;14.612;2023-04-23T10:54:58;97904.66;;;20.40;100.00
21902;BME280;11115;46.038;14.612;2023-04-23T10:58:06;97912.84;;;20.52;100.00
21902;BME280;11115;46.038;14.612;2023-04-23T11:00:49;97905.25;;;20.60;100.00
21902;BME280;11115;46.038;14.612;2023-04-23T11:03:40;97906.69;;;20.87;100.00
21902;BME280;11115;46.038;14.612;2023-04-23T11:09:48;97907.34;;;21.29;100.00
21902;BME280;11115;46.038;14.612;2023-04-23T11:12:31;97907.66;;;22.03;100.00
21902;BME280;11115;46.038;14.612;2023-04-23T11:15:14;97906.47;;;22.04;100.00
21902;BME280;11115;46.038;14.612;2023-04-23T11:20:24;97892.34;;;22.01;100.00
21902;BME280;11115;46.038;14.612;2023-04-23T11:22:53;97890.72;;;21.96;100.00
21902;BME280;11115;46.038;14.612;2023-04-23T11:25:34;97880.25;;;21.93;100.00
21902;BME280;11115;46.038;14.612;2023-04-23T11:28:11;97901.28;;;22.35;100.00
21902;BME280;11115;46.038;14.612;2023-04-23T11:30:42;97897.22;;;22.11;100.00
21902;BME280;11115;46.038;14.612;2023-04-23T11:33:16;97899.00;;;21.46;100.00
21902;BME280;11115;46.038;14.612;2023-04-23T11:35:48;97898.59;;;21.48;100.00
21902;BME280;11115;46.038;14.612;2023-04-23T11:38:22;97891.84;;;21.67;100.00
21902;BME280;11115;46.038;14.612;2023-04-23T11:40:53;97892.97;;;21.44;100.00
21902;BME280;11115;46.038;14.612;2023-04-23T11:43:31;97889.34;;;21.40;100.00
21902;BME280;11115;46.038;14.612;2023-04-23T11:46:04;97892.31;;;21.03;100.00
21902;BME280;11115;46.038;14.612;2023-04-23T11:48:40;97891.00;;;20.86;100.00
21902;BME280;11115;46.038;14.612;2023-04-23T11:51:11;97882.72;;;21.11;100.00
21902;BME280;11115;46.038;14.612;2023-04-23T11:53:45;97883.88;;;21.03;100.00
21902;BME280;11115;46.038;14.612;2023-04-23T11:56:17;97883.66;;;21.33;100.00
21902;BME280;11115;46.038;14.612;2023-04-23T11:59:01;97877.69;;;21.42;100.00
21902;BME280;11115;46.038;14.612;2023-04-23T12:01:46;97857.84;;;21.20;100.00
21902;BME280;11115;46.038;14.612;2023-04-23T12:04:32;97865.00;;;21.04;100.00
21902;BME280;11115;46.038;14.612;2023-04-23T12:07:06;97864.03;;;20.75;100.00
21902;BME280;11115;46.038;14.612;2023-04-23T12:09:57;97862.97;;;21.01;100.00
21902;BME280;11115;46.038;14.612;2023-04-23T12:12:34;97865.56;;;21.27;100.00
21902;BME280;11115;46.038;14.612;2023-04-23T12:15:04;97861.97;;;21.37;100.00
21902;BME280;11115;46.038;14.612;2023-04-23T12:17:47;97856.13;;;21.92;100.00
21902;BME280;11115;46.038;14.612;2023-04-23T12:20:31;97857.78;;;22.54;100.00
21902;BME280;11115;46.038;14.612;2023-04-23T12:23:06;97808.72;;;22.37;100.00
21902;BME280;11115;46.038;14.612;2023-04-23T12:25:57;97844.50;;;22.68;100.00
21902;BME280;11115;46.038;14.612;2023-04-23T12:28:44;97840.00;;;23.14;100.00
21902;BME280;11115;46.038;14.612;2023-04-23T12:31:25;97847.34;;;22.47;98.15
21902;BME280;11115;46.038;14.612;2023-04-23T12:34:08;97838.84;;;22.90;100.00
21902;BME280;11115;46.038;14.612;2023-04-23T12:36:51;97833.25;;;22.47;100.00
21902;BME280;11115;46.038;14.612;2023-04-23T12:39:30;97841.69;;;22.68;98.92
21902;BME280;11115;46.038;14.612;2023-04-23T12:42:03;97838.78;;;23.18;94.84
21902;BME280;11115;46.038;14.612;2023-04-23T12:44:40;97833.66;;;22.63;99.34
21902;BME280;11115;46.038;14.612;2023-04-23T12:47:10;97832.00;;;22.91;100.00
21902;BME280;11115;46.038;14.612;2023-04-23T12:49:51;97836.00;;;23.04;94.38
21902;BME280;11115;46.038;14.612;2023-04-23T12:52:21;97824.75;;;22.79;95.26
21902;BME280;11115;46.038;14.612;2023-04-23T12:54:59;97828.44;;;22.40;100.00
21902;BME280;11115;46.038;14.612;2023-04-23T12:57:34;97841.72;;;22.47;100.00
21902;BME280;11115;46.038;14.612;2023-04-23T13:00:08;97825.59;;;22.55;100.00
21902;BME280;11115;46.038;14.612;2023-04-23T13:02:40;97828.81;;;22.35;100.00
21902;BME280;11115;46.038;14.612;2023-04-23T13:05:12;97823.09;;;21.71;100.00
21902;BME280;11115;46.038;14.612;2023-04-23T13:07:43;97823.91;;;21.68;100.00
21902;BME280;11115;46.038;14.612;2023-04-23T13:10:11;97826.59;;;21.29;100.00
21902;BME280;11115;46.038;14.612;2023-04-23T13:12:45;97822.97;;;21.29;100.00
21902;BME280;11115;46.038;14.612;2023-04-23T13:15:18;97813.78;;;21.42;100.00
21902;BME280;11115;46.038;14.612;2023-04-23T13:17:53;97822.38;;;22.63;99.47
21902;BME280;11115;46.038;14.612;2023-04-23T13:20:24;97816.31;;;22.83;92.71
21902;BME280;11115;46.038;14.612;2023-04-23T13:23:06;97806.16;;;23.07;90.70
21902;BME280;11115;46.038;14.612;2023-04-23T13:25:42;97800.16;;;24.40;78.30
21902;BME280;11115;46.038;14.612;2023-04-23T13:28:18;97802.09;;;24.92;71.45
21902;BME280;11115;46.038;14.612;2023-04-23T13:31:04;97793.63;;;26.14;67.80
21902;BME280;11115;46.038;14.612;2023-04-23T13:33:39;97790.09;;;26.56;62.04
21902;BME280;11115;46.038;14.612;2023-04-23T13:36:22;97794.00;;;25.89;59.06
21902;BME280;11115;46.038;14.612;2023-04-23T13:39:05;97770.06;;;28.19;51.79
21902;BME280;11115;46.038;14.612;2023-04-23T13:41:40;97773.84;;;29.22;49.09
21902;BME280;11115;46.038;14.612;2023-04-23T13:44:33;97772.44;;;26.69;52.31